Time;durP1;ratioP1;P1;durP2;ratioP2;P2;SDS_P1;SDS_P2;PMS_P1;PMS_P2;Temp;Humidity;BMP_temperature;BMP_pressure;BME280_temperature;BME280_humidity;BME280_pressure;Samples;Min_cycle;Max_cycle;Signal;HPM_P1;HPM_P2
2023/11/25 00:00:16;;;;;;;4.20;1.63;;;;;;;-145.69;64.94;52367.16;5073938;28;20667;-79
2023/11/25 00:02:43;;;;;;;3.00;1.80;;;;;;;-145.69;65.32;52396.84;5074386;28;20260;-79
2023/11/25 00:05:09;;;;;;;6.60;1.53;;;;;;;-145.69;64.77;52408.75;5073946;28;20561;-79
2023/11/25 00:07:36;;;;;;;5.50;1.50;;;;;;;-145.69;64.67;52394.88;5074215;28;20234;-79
2023/11/25 00:10:03;;;;;;;4.77;1.77;;;;;;;-145.69;64.53;52400.81;5073567;28;20205;-79
2023/11/25 00:12:29;;;;;;;6.90;1.93;;;;;;;-145.69;64.51;52418.63;5073614;28;20277;-79
2023/11/25 00:14:56;;;;;;;6.17;1.63;;;;;;;-145.69;64.66;52404.78;5073512;28;20662;-79
2023/11/25 00:17:28;;;;;;;6.37;1.60;;;;;;;-145.69;64.92;52408.75;5073446;28;20230;-79
2023/11/25 00:19:54;;;;;;;6.40;1.70;;;;;;;-145.69;64.43;52408.75;5073419;28;20553;-79
2023/11/25 00:22:21;;;;;;;7.60;1.97;;;;;;;-145.69;64.13;52398.84;5073522;28;20199;-78
2023/11/25 00:24:48;;;;;;;6.63;1.67;;;;;;;-145.69;64.62;52379.03;5073549;28;20195;-79
2023/11/25 00:27:14;;;;;;;13.80;1.53;;;;;;;-145.69;63.74;52386.97;5073120;28;20195;-78
2023/11/25 00:29:41;;;;;;;4.83;1.73;;;;;;;-145.69;63.74;52400.81;5073346;28;20266;-79
2023/11/25 00:32:07;;;;;;;4.20;1.40;;;;;;;-145.69;63.84;52394.88;5073523;28;20209;-79
2023/11/25 00:34:35;;;;;;;3.90;1.37;;;;;;;-145.69;63.70;52353.28;5072909;28;20606;-80
2023/11/25 00:37:02;;;;;;;4.83;1.57;;;;;;;-145.69;63.37;52404.78;5072981;28;20222;-78
2023/11/25 00:39:29;;;;;;;11.20;1.70;;;;;;;-145.69;63.18;52379.03;5073410;28;20203;-79
2023/11/25 00:41:56;;;;;;;7.67;1.40;;;;;;;-145.69;63.64;52373.09;5073171;28;20233;-79
2023/11/25 00:44:22;;;;;;;1.33;1.20;;;;;;;-145.69;63.26;52383.00;5073428;28;20245;-79
2023/11/25 00:46:48;;;;;;;1.83;1.37;;;;;;;-145.69;63.44;52408.75;5073394;28;20617;-78
2023/11/25 00:49:15;;;;;;;2.23;1.27;;;;;;;-145.69;63.37;52379.03;5073087;28;20199;-78
2023/11/25 00:51:43;;;;;;;2.07;1.37;;;;;;;-145.69;63.31;52404.78;5073002;28;20625;-79
2023/11/25 00:54:09;;;;;;;4.13;1.20;;;;;;;-145.69;63.32;52444.38;5073077;28;20199;-79
2023/11/25 00:56:36;;;;;;;4.23;1.10;;;;;;;-145.69;64.06;52444.38;5073194;28;20582;-79
2023/11/25 00:59:03;;;;;;;5.87;1.40;;;;;;;-145.69;64.59;52388.94;5073192;28;20202;-78
2023/11/25 01:01:29;;;;;;;4.40;1.37;;;;;;;-145.69;64.81;52355.28;5073140;28;20205;-79
2023/11/25 01:03:56;;;;;;;8.80;1.60;;;;;;;-145.69;64.96;52412.69;5073082;28;20198;-79
2023/11/25 01:06:22;;;;;;;6.10;1.67;;;;;;;-145.69;64.97;52381.00;5069788;28;20201;-79
2023/11/25 01:08:50;;;;;;;5.50;1.70;;;;;;;-145.69;64.40;52369.13;5063991;28;20227;-79
2023/11/25 01:11:16;;;;;;;8.20;1.80;;;;;;;-145.69;64.63;52416.66;5072715;28;20202;-79
2023/11/25 01:13:43;;;;;;;2.63;1.60;;;;;;;-145.69;64.59;52377.06;5072877;28;20195;-79
2023/11/25 01:16:16;;;;;;;2.87;1.50;;;;;;;-145.69;64.65;52410.72;5072293;28;20672;-78
2023/11/25 01:18:42;;;;;;;4.23;1.67;;;;;;;-145.69;64.89;52432.50;5072559;28;20268;-79
2023/11/25 01:21:09;;;;;;;4.07;1.77;;;;;;;-145.69;64.95;52384.97;5072846;28;20199;-79
2023/11/25 01:23:35;;;;;;;2.03;1.37;;;;;;;-145.69;64.72;52375.06;5072740;28;20198;-79
2023/11/25 01:26:04;;;;;;;6.77;1.60;;;;;;;-145.69;64.77;52377.06;5072684;28;20198;-79
2023/11/25 01:28:30;;;;;;;4.70;1.73;;;;;;;-145.69;64.63;52373.09;5072867;28;20194;-78
2023/11/25 01:30:57;;;;;;;2.47;1.23;;;;;;;-145.69;64.76;52416.66;5072553;28;20199;-78
2023/11/25 01:33:23;;;;;;;4.77;1.60;;;;;;;-145.69;64.58;52396.84;5072648;28;20214;-79
2023/11/25 01:35:50;;;;;;;4.93;1.50;;;;;;;-145.69;64.90;52402.78;5072387;28;20195;-78
2023/11/25 01:38:16;;;;;;;3.50;1.30;;;;;;;-145.69;64.68;52398.84;5072622;28;20585;-79
2023/11/25 01:40:44;;;;;;;2.67;1.40;;;;;;;-145.69;65.06;52396.84;5072684;28;20203;-79
2023/11/25 01:43:14;;;;;;;3.80;1.10;;;;;;;-145.69;65.04;52396.84;5054061;28;20198;-79
2023/11/25 01:45:40;;;;;;;3.00;1.60;;;;;;;-145.69;65.16;52412.69;5053935;28;20199;-79
2023/11/25 01:48:07;;;;;;;6.83;1.67;;;;;;;-145.69;64.86;52432.50;5056528;28;20203;-79
2023/11/25 01:50:36;;;;;;;2.13;1.40;;;;;;;-145.69;64.86;52402.78;5056391;28;20215;-79
2023/11/25 01:53:04;;;;;;;5.13;1.43;;;;;;;-145.69;64.74;52388.94;5056334;28;20741;-79
2023/11/25 01:55:32;;;;;;;4.07;1.30;;;;;;;-145.69;64.54;52392.91;5056096;28;20681;-78
2023/11/25 01:57:59;;;;;;;4.80;1.50;;;;;;;-145.69;64.69;52379.03;5056399;28;20231;-79
2023/11/25 02:00:28;;;;;;;5.20;1.40;;;;;;;-145.69;64.92;52400.81;5056442;28;20242;-79
2023/11/25 02:02:57;;;;;;;3.77;1.50;;;;;;;-145.69;64.51;52384.97;5056231;28;20199;-79
2023/11/25 02:05:24;;;;;;;7.23;1.60;;;;;;;-145.69;64.56;52424.59;5056064;28;20234;-79
2023/11/25 02:07:51;;;;;;;5.40;1.27;;;;;;;-145.69;64.57;52400.81;5075440;28;20367;-79
2023/11/25 02:10:19;;;;;;;4.73;1.70;;;;;;;-145.69;64.21;52400.81;5076246;28;20206;-79
2023/11/25 02:12:46;;;;;;;13.00;2.87;;;;;;;-145.69;64.65;52400.81;5075869;28;20654;-78
2023/11/25 02:15:14;;;;;;;5.00;1.50;;;;;;;-145.69;64.38;52400.81;5075663;28;20202;-79
2023/11/25 02:17:44;;;;;;;4.53;1.40;;;;;;;-145.69;64.74;52418.63;5075872;28;20227;-78
2023/11/25 02:20:13;;;;;;;4.10;1.23;;;;;;;-145.69;64.01;52426.56;5076108;28;20201;-79
2023/11/25 02:22:40;;;;;;;8.17;1.50;;;;;;;-145.69;64.01;52390.91;5075875;28;20199;-79
2023/11/25 02:25:09;;;;;;;5.10;1.57;;;;;;;-145.69;64.02;52383.00;5075982;28;20203;-79
2023/11/25 02:27:35;;;;;;;5.00;1.43;;;;;;;-145.69;63.00;52402.78;5075802;28;20195;-79
2023/11/25 02:30:05;;;;;;;3.67;1.13;;;;;;;-145.69;62.87;52369.13;5075848;28;20622;-79
2023/11/25 02:32:33;;;;;;;3.70;1.23;;;;;;;-145.69;62.31;52444.38;5075668;28;20198;-79
2023/11/25 02:35:00;;;;;;;9.13;1.13;;;;;;;-145.69;62.34;52341.41;5075908;28;20202;-79
2023/11/25 02:37:26;;;;;;;8.37;1.30;;;;;;;-145.69;62.05;52392.91;5075640;28;20287;-79
2023/11/25 02:39:52;;;;;;;7.83;1.70;;;;;;;-145.69;61.51;52363.19;5075467;28;20664;-79
2023/11/25 02:42:21;;;;;;;2.47;1.00;;;;;;;-145.69;61.82;52384.97;5075412;28;20569;-79
2023/11/25 02:44:47;;;;;;;5.33;1.30;;;;;;;-145.69;61.62;52414.69;5075622;28;20527;-79
2023/11/25 02:47:14;;;;;;;3.53;1.30;;;;;;;-145.69;61.74;52384.97;5075431;28;20608;-78
2023/11/25 02:49:40;;;;;;;2.50;1.30;;;;;;;-145.69;61.98;52386.97;5075579;28;20203;-79
2023/11/25 02:52:07;;;;;;;3.83;1.50;;;;;;;-145.69;62.03;52412.69;5074965;28;20662;-78
2023/11/25 02:54:34;;;;;;;4.80;1.27;;;;;;;-145.69;61.89;52400.81;5075449;28;20209;-79
2023/11/25 02:57:00;;;;;;;1.93;1.13;;;;;;;-145.69;61.97;52388.94;5074885;28;20693;-79
2023/11/25 02:59:28;;;;;;;6.20;1.60;;;;;;;-145.69;61.95;52420.63;5075612;28;20203;-79
2023/11/25 03:01:55;;;;;;;8.93;1.17;;;;;;;-145.69;62.17;52404.78;5075338;28;20210;-79
2023/11/25 03:04:23;;;;;;;10.17;1.50;;;;;;;-145.69;61.56;52365.16;5072078;28;20203;-79
2023/11/25 03:06:51;;;;;;;6.90;1.30;;;;;;;-145.69;61.86;52402.78;5074488;28;20201;-79
2023/11/25 03:09:17;;;;;;;4.60;1.30;;;;;;;-145.69;62.11;52400.81;5074936;28;20265;-79
2023/11/25 03:11:44;;;;;;;5.60;1.40;;;;;;;-145.69;61.39;52396.84;5073870;28;20202;-79
2023/11/25 03:14:10;;;;;;;4.90;1.10;;;;;;;-145.69;61.82;52398.84;5074832;28;20210;-79
2023/11/25 03:16:38;;;;;;;1.77;0.97;;;;;;;-145.69;60.66;52384.97;5074905;28;20281;-78
2023/11/25 03:19:06;;;;;;;7.67;1.23;;;;;;;-145.69;59.99;52365.16;5074914;28;20203;-79
2023/11/25 03:21:33;;;;;;;3.50;1.10;;;;;;;-145.69;60.91;52420.63;5075362;28;20252;-79
2023/11/25 03:24:00;;;;;;;2.67;0.90;;;;;;;-145.69;60.41;52416.66;5076032;28;20761;-79
2023/11/25 03:26:28;;;;;;;5.00;1.27;;;;;;;-145.69;59.97;52375.06;5074504;28;20199;-79
2023/11/25 03:28:54;;;;;;;3.47;1.10;;;;;;;-145.69;60.05;52408.75;5074836;28;20604;-79
2023/11/25 03:31:22;;;;;;;4.70;1.17;;;;;;;-145.69;59.56;52424.59;5074506;28;20661;-79
2023/11/25 03:33:50;;;;;;;6.03;1.30;;;;;;;-145.69;59.26;52422.59;5074675;28;20270;-79
2023/11/25 03:36:17;;;;;;;3.60;1.10;;;;;;;-145.69;59.26;52400.81;5074121;28;20202;-79
2023/11/25 03:38:43;;;;;;;2.17;1.13;;;;;;;-145.69;59.19;52384.97;5074227;28;20238;-79
2023/11/25 03:41:10;;;;;;;6.80;1.33;;;;;;;-145.69;58.78;52398.84;5072292;28;20195;-79
2023/11/25 03:43:35;;;;;;;2.47;1.00;;;;;;;-145.69;58.70;52396.84;5074448;28;20293;-79
2023/11/25 03:46:04;;;;;;;3.97;1.13;;;;;;;-145.69;59.15;52398.84;5074255;28;20290;-79
2023/11/25 03:48:32;;;;;;;4.63;1.10;;;;;;;-145.69;58.84;52384.97;5074349;28;20206;-79
2023/11/25 03:51:00;;;;;;;1.90;1.20;;;;;;;-145.69;59.30;52365.16;5074236;28;20199;-79
2023/11/25 03:53:27;;;;;;;6.33;1.40;;;;;;;-145.69;59.08;52392.91;5074097;28;20202;-79
2023/11/25 03:55:54;;;;;;;4.20;1.00;;;;;;;-145.69;59.26;52404.78;5073822;28;20225;-79
2023/11/25 03:58:20;;;;;;;2.63;0.87;;;;;;;-145.69;59.60;52400.81;5074132;28;20230;-79
2023/11/25 04:00:47;;;;;;;3.47;1.10;;;;;;;-145.69;59.16;52390.91;5073686;28;20206;-79
2023/11/25 04:03:13;;;;;;;1.93;1.10;;;;;;;-145.69;59.30;52404.78;5074033;28;20555;-79
2023/11/25 04:05:39;;;;;;;4.73;1.00;;;;;;;-145.69;59.59;52404.78;5073653;28;20210;-80
2023/11/25 04:08:07;;;;;;;5.90;1.20;;;;;;;-145.69;59.66;52381.00;5073544;28;20257;-79
2023/11/25 04:10:34;;;;;;;2.60;1.00;;;;;;;-145.69;59.24;52420.63;5072793;28;20202;-79
2023/11/25 04:13:00;;;;;;;2.23;1.00;;;;;;;-145.69;59.33;52392.91;5073579;28;20206;-78
2023/11/25 04:15:27;;;;;;;5.17;1.20;;;;;;;-145.69;58.58;52359.22;5073653;28;20202;-78
2023/11/25 04:17:53;;;;;;;2.70;1.20;;;;;;;-145.69;58.71;52388.94;5073682;28;20601;-80
2023/11/25 04:20:27;;;;;;;1.03;0.73;;;;;;;-145.69;58.11;52386.97;5073517;28;20207;-79
2023/11/25 04:22:55;;;;;;;4.87;1.20;;;;;;;-145.69;58.23;52404.78;5073611;28;20226;-79
2023/11/25 04:25:24;;;;;;;2.33;1.20;;;;;;;-145.69;57.93;52400.81;5073716;28;20198;-79
2023/11/25 04:27:51;;;;;;;3.93;1.13;;;;;;;-145.69;58.03;52400.81;5073410;28;20202;-80
2023/11/25 04:30:18;;;;;;;4.17;1.20;;;;;;;-145.69;57.78;52377.06;5073549;28;20613;-79
2023/11/25 04:32:46;;;;;;;3.63;1.10;;;;;;;-145.69;58.03;52394.88;5073466;28;20223;-79
2023/11/25 04:35:13;;;;;;;3.30;1.40;;;;;;;-145.69;57.39;52400.81;5073085;28;20281;-79
2023/11/25 04:37:43;;;;;;;2.57;1.10;;;;;;;-145.69;57.83;52390.91;5073233;28;20222;-78
2023/11/25 04:40:11;;;;;;;3.57;1.00;;;;;;;-145.69;57.76;52384.97;5073198;28;20198;-79
2023/11/25 04:42:39;;;;;;;4.27;1.13;;;;;;;-145.69;56.77;52353.28;5073402;28;20199;-79
2023/11/25 04:45:14;;;;;;;3.90;1.20;;;;;;;-145.69;57.50;52383.00;5072625;28;20928;-79
2023/11/25 04:47:41;;;;;;;7.43;1.10;;;;;;;-145.69;57.24;52390.91;5072906;28;20207;-78
2023/11/25 04:50:09;;;;;;;8.10;1.03;;;;;;;-145.69;57.30;52341.41;5073164;28;20231;-79
2023/11/25 04:52:35;;;;;;;3.97;1.23;;;;;;;-145.69;57.07;52367.16;5073384;28;20260;-78
2023/11/25 04:55:03;;;;;;;4.57;1.30;;;;;;;-145.69;56.72;52381.00;5073048;28;20203;-78
2023/11/25 04:57:29;;;;;;;4.33;1.17;;;;;;;-145.69;56.55;52392.91;5073192;28;20227;-79
2023/11/25 04:59:57;;;;;;;4.47;1.27;;;;;;;-145.69;56.40;52379.03;5073279;28;20199;-79
2023/11/25 05:02:23;;;;;;;5.23;1.50;;;;;;;-145.69;56.42;52408.75;5073333;28;20210;-79
2023/11/25 05:04:50;;;;;;;4.03;1.43;;;;;;;-145.69;56.72;52390.91;5072850;28;20297;-78
2023/11/25 05:07:16;;;;;;;3.87;1.00;;;;;;;-145.69;56.85;52412.69;5072388;28;20233;-79
2023/11/25 05:09:43;;;;;;;5.47;1.00;;;;;;;-145.69;57.06;52414.69;5058054;28;20203;-79
2023/11/25 05:12:10;;;;;;;2.00;1.10;;;;;;;-145.69;56.95;52428.53;5069868;28;20600;-79
2023/11/25 05:14:36;;;;;;;6.30;1.30;;;;;;;-145.69;57.10;52383.00;5072616;28;20194;-78
2023/11/25 05:17:05;;;;;;;7.13;1.10;;;;;;;-145.69;56.88;52390.91;5072802;28;20195;-80
2023/11/25 05:19:31;;;;;;;3.20;1.03;;;;;;;-145.69;57.09;52373.09;5072979;28;20226;-79
2023/11/25 05:21:58;;;;;;;7.03;1.10;;;;;;;-145.69;57.46;52381.00;5072416;28;20558;-79
2023/11/25 05:24:25;;;;;;;1.63;1.17;;;;;;;-145.69;57.45;52381.00;5072764;28;20542;-78
2023/11/25 05:26:53;;;;;;;5.90;1.20;;;;;;;-145.69;57.93;52420.63;5072782;28;20249;-79
2023/11/25 05:29:20;;;;;;;4.27;1.20;;;;;;;-145.69;57.65;52396.84;5072774;28;20248;-79
2023/11/25 05:31:46;;;;;;;7.90;1.23;;;;;;;-145.69;57.94;52400.81;5072585;28;20553;-80
2023/11/25 05:34:14;;;;;;;7.70;1.30;;;;;;;-145.69;57.88;52371.13;5072875;28;20202;-79
2023/11/25 05:36:41;;;;;;;4.00;0.97;;;;;;;-145.69;57.58;52398.84;5072252;28;20206;-79
2023/11/25 05:39:11;;;;;;;7.80;1.20;;;;;;;-145.69;57.70;52392.91;5072681;28;20222;-79
2023/11/25 05:41:38;;;;;;;3.87;1.40;;;;;;;-145.69;57.72;52396.84;5072676;28;20276;-79
2023/11/25 05:44:07;;;;;;;8.03;1.40;;;;;;;-145.69;57.91;52398.84;5072653;28;20565;-78
2023/11/25 05:46:34;;;;;;;3.47;1.63;;;;;;;-145.69;58.23;52377.06;5072729;28;20202;-79
2023/11/25 05:49:01;;;;;;;4.13;1.93;;;;;;;-145.69;58.46;52371.13;5070685;28;20220;-80
2023/11/25 05:51:36;;;;;;;1.83;1.00;;;;;;;-145.69;58.25;52404.78;5072600;28;20205;-79
2023/11/25 05:54:02;;;;;;;3.50;1.60;;;;;;;-145.69;58.13;52377.06;5072453;28;20221;-79
2023/11/25 05:56:29;;;;;;;6.37;1.30;;;;;;;-145.69;58.20;52430.53;5072361;28;20210;-79
2023/11/25 05:58:56;;;;;;;8.40;1.30;;;;;;;-145.69;58.31;52384.97;5072342;28;20639;-79
2023/11/25 06:01:23;;;;;;;5.00;1.30;;;;;;;-145.69;57.80;52375.06;5072205;28;20561;-79
2023/11/25 06:03:50;;;;;;;6.37;1.63;;;;;;;-145.69;57.78;52375.06;5072449;28;20207;-80
2023/11/25 06:06:18;;;;;;;3.87;1.30;;;;;;;-145.69;57.51;52416.66;5072086;28;20202;-79
2023/11/25 06:08:47;;;;;;;7.40;1.20;;;;;;;-145.69;57.85;52408.75;5072769;28;20273;-79
2023/11/25 06:11:19;;;;;;;8.13;1.10;;;;;;;-145.69;57.68;52361.22;5072000;28;20306;-79
2023/11/25 06:13:46;;;;;;;3.87;1.23;;;;;;;-145.69;58.29;52353.28;5072297;28;20249;-79
2023/11/25 06:16:12;;;;;;;6.07;1.63;;;;;;;-145.69;58.63;52400.81;5072211;28;20230;-79
2023/11/25 06:18:39;;;;;;;6.20;1.40;;;;;;;-145.69;59.05;52396.84;5072080;28;20227;-79
2023/11/25 06:21:08;;;;;;;5.80;1.30;;;;;;;-145.69;59.69;52410.72;5071706;28;20191;-79
2023/11/25 06:23:35;;;;;;;8.00;1.60;;;;;;;-145.69;59.99;52386.97;5072176;28;20207;-78
2023/11/25 06:26:02;;;;;;;3.73;1.20;;;;;;;-145.69;59.69;52390.91;5071823;28;20673;-80
2023/11/25 06:28:29;;;;;;;3.90;1.30;;;;;;;-145.69;59.31;52402.78;5072301;28;20201;-79
2023/11/25 06:30:55;;;;;;;3.93;1.30;;;;;;;-145.69;59.13;52390.91;5072074;28;20214;-78
2023/11/25 06:33:24;;;;;;;2.53;1.43;;;;;;;-145.69;58.71;52375.06;5074331;28;20207;-79
2023/11/25 06:35:50;;;;;;;3.53;1.37;;;;;;;-145.69;59.06;52347.34;5075253;28;20195;-78
2023/11/25 06:38:16;;;;;;;6.33;1.77;;;;;;;-145.69;58.40;52381.00;5075071;28;20226;-78
2023/11/25 06:40:42;;;;;;;4.37;1.30;;;;;;;-145.69;59.10;52404.78;5075531;28;20591;-78
2023/11/25 06:43:10;;;;;;;4.43;1.37;;;;;;;-145.69;59.76;52400.81;5075280;28;20565;-79
2023/11/25 06:45:40;;;;;;;6.43;1.30;;;;;;;-145.69;59.46;52406.75;5075457;28;20226;-79
2023/11/25 06:48:07;;;;;;;2.03;1.10;;;;;;;-145.69;60.06;52396.84;5075569;28;20213;-79
2023/11/25 06:50:34;;;;;;;8.00;2.13;;;;;;;-145.69;60.87;52430.53;5075510;28;20198;-78
2023/11/25 06:53:00;;;;;;;5.20;1.37;;;;;;;-145.69;60.82;52408.75;5075074;28;20209;-78
2023/11/25 06:55:27;;;;;;;2.83;1.10;;;;;;;-145.69;61.12;52414.69;5075359;28;20645;-78
2023/11/25 06:57:53;;;;;;;9.00;1.70;;;;;;;-145.69;60.93;52375.06;5075246;28;20194;-78
2023/11/25 07:00:22;;;;;;;7.03;1.80;;;;;;;-145.69;61.00;52408.75;5075226;28;20676;-79
2023/11/25 07:02:49;;;;;;;2.77;1.30;;;;;;;-145.69;60.96;52408.75;5057598;28;20234;-78
2023/11/25 07:05:16;;;;;;;3.03;1.50;;;;;;;-145.69;61.83;52408.75;5059563;28;20191;-78
2023/11/25 07:07:43;;;;;;;4.83;1.60;;;;;;;-145.69;61.98;52357.25;5074971;28;20701;-78
2023/11/25 07:10:10;;;;;;;2.23;1.20;;;;;;;-145.69;60.93;52412.69;5075088;28;20277;-79
2023/11/25 07:12:36;;;;;;;4.40;1.50;;;;;;;-145.69;61.39;52412.69;5075165;28;20567;-78
2023/11/25 07:15:04;;;;;;;4.50;1.50;;;;;;;-145.69;61.90;52418.63;5075011;28;20209;-79
2023/11/25 07:17:32;;;;;;;3.50;1.40;;;;;;;-145.69;61.55;52375.06;5074214;28;20195;-79
2023/11/25 07:19:58;;;;;;;4.40;1.50;;;;;;;-145.69;62.12;52404.78;5074534;28;20230;-79
2023/11/25 07:22:25;;;;;;;2.90;1.30;;;;;;;-145.69;62.52;52398.84;5074944;28;20198;-79
2023/11/25 07:24:52;;;;;;;9.73;1.70;;;;;;;-145.69;61.87;52418.63;5074719;28;20203;-79
2023/11/25 07:27:19;;;;;;;3.47;1.40;;;;;;;-145.69;62.15;52379.03;5074811;28;20202;-79
2023/11/25 07:29:45;;;;;;;5.40;1.33;;;;;;;-145.69;61.59;52408.75;5074613;28;20667;-79
2023/11/25 07:32:12;;;;;;;8.80;2.07;;;;;;;-145.69;61.34;52384.97;5074400;28;20199;-79
2023/11/25 07:34:43;;;;;;;3.70;1.53;;;;;;;-145.69;61.44;52404.78;5074460;28;20252;-79
2023/11/25 07:37:09;;;;;;;5.23;1.40;;;;;;;-145.69;60.76;52394.88;5073718;28;20195;-79
2023/11/25 07:39:36;;;;;;;4.47;1.80;;;;;;;-145.69;60.77;52416.66;5056729;28;20231;-79
2023/11/25 07:42:04;;;;;;;3.43;1.53;;;;;;;-145.69;61.24;52381.00;5066943;28;20195;-78
2023/11/25 07:44:31;;;;;;;6.97;1.73;;;;;;;-145.69;61.19;52377.06;5074275;28;20622;-79
2023/11/25 07:46:57;;;;;;;9.60;1.70;;;;;;;-145.69;60.74;52375.06;5073922;28;20202;-78
2023/11/25 07:49:24;;;;;;;8.70;1.83;;;;;;;-145.69;60.33;52408.75;5074498;28;20198;-79
2023/11/25 07:51:52;;;;;;;6.57;1.50;;;;;;;-145.69;59.67;52394.88;5074290;28;20285;-79
2023/11/25 07:54:18;;;;;;;6.57;1.60;;;;;;;-145.69;59.62;52379.03;5074192;28;20195;-79
2023/11/25 07:56:45;;;;;;;2.40;1.47;;;;;;;-145.69;59.44;52365.16;5073989;28;20604;-79
2023/11/25 07:59:12;;;;;;;2.73;1.47;;;;;;;-145.69;58.86;52408.75;5073913;28;20249;-78
2023/11/25 08:01:39;;;;;;;8.20;1.97;;;;;;;-145.69;58.23;52428.53;5074075;28;20950;-79
2023/11/25 08:04:06;;;;;;;8.93;1.77;;;;;;;-145.69;58.33;52363.19;5073777;28;20210;-79
2023/11/25 08:06:33;;;;;;;5.90;1.73;;;;;;;-145.69;58.08;52373.09;5073521;28;20202;-79
2023/11/25 08:09:02;;;;;;;3.53;1.37;;;;;;;-145.69;57.45;52343.38;5073680;28;20234;-79
2023/11/25 08:11:32;;;;;;;4.43;1.53;;;;;;;-145.69;56.69;52375.06;5073848;28;20194;-78
2023/11/25 08:13:59;;;;;;;7.43;1.90;;;;;;;-145.69;56.56;52394.88;5073510;28;20310;-78
2023/11/25 08:16:25;;;;;;;2.83;1.30;;;;;;;-145.69;56.19;52388.94;5073440;28;20209;-79
2023/11/25 08:18:52;;;;;;;3.73;1.40;;;;;;;-145.69;56.92;52408.75;5073449;28;20222;-79
2023/11/25 08:21:20;;;;;;;4.53;1.50;;;;;;;-145.69;55.52;52384.97;5073726;28;20306;-79
2023/11/25 08:23:47;;;;;;;8.57;1.60;;;;;;;-145.69;55.95;52357.25;5073184;28;20671;-79
2023/11/25 08:26:22;;;;;;;6.13;1.60;;;;;;;-145.69;56.09;52327.53;5073396;28;20233;-79
2023/11/25 08:28:50;;;;;;;6.70;1.80;;;;;;;-145.69;55.89;52390.91;5073448;28;20268;-79
2023/11/25 08:31:17;;;;;;;4.00;1.77;;;;;;;-145.69;55.91;52388.94;5073117;28;20553;-79
2023/11/25 08:33:44;;;;;;;4.20;1.60;;;;;;;-145.69;56.22;52384.97;5073564;28;20202;-79
2023/11/25 08:36:12;;;;;;;10.70;2.40;;;;;;;-145.69;54.52;52337.44;5073064;28;20726;-79
2023/11/25 08:38:38;;;;;;;5.50;1.63;;;;;;;-145.69;54.40;52379.03;5073020;28;20225;-79
2023/11/25 08:41:06;;;;;;;5.97;1.60;;;;;;;-145.69;54.97;52392.91;5073156;28;20325;-79
2023/11/25 08:43:34;;;;;;;5.93;1.43;;;;;;;-145.69;54.57;52392.91;5072902;28;20199;-79
2023/11/25 08:46:01;;;;;;;4.23;1.60;;;;;;;-145.69;54.96;52353.28;5073277;28;20213;-79
2023/11/25 08:48:29;;;;;;;4.30;1.43;;;;;;;-145.69;54.00;52355.28;5073073;28;20665;-78
2023/11/25 08:50:56;;;;;;;2.93;1.30;;;;;;;-145.69;52.93;52386.97;5072854;28;20297;-78
2023/11/25 08:53:23;;;;;;;5.93;1.80;;;;;;;-145.69;52.77;52361.22;5072936;28;20672;-78
2023/11/25 08:55:50;;;;;;;4.50;1.30;;;;;;;-145.69;52.04;52363.19;5072384;28;20230;-78
2023/11/25 08:58:17;;;;;;;7.27;1.97;;;;;;;-145.69;51.86;52357.25;5073108;28;20234;-78
2023/11/25 09:00:45;;;;;;;7.00;1.63;;;;;;;-145.69;51.76;52341.41;5071308;28;20238;-78
2023/11/25 09:03:14;;;;;;;8.37;1.47;;;;;;;-145.69;51.94;52329.53;5053586;28;20205;-78
2023/11/25 09:05:40;;;;;;;6.50;2.17;;;;;;;-145.69;52.72;52333.47;5059277;28;20607;-78
2023/11/25 09:08:09;;;;;;;3.60;1.40;;;;;;;-145.69;53.05;52377.06;5072173;28;20234;-78
2023/11/25 09:10:36;;;;;;;4.80;1.40;;;;;;;-145.69;52.67;52373.09;5070620;28;20298;-78
2023/11/25 09:13:03;;;;;;;4.57;1.60;;;;;;;-145.69;52.45;52369.13;5065274;28;20197;-78
2023/11/25 09:15:29;;;;;;;3.47;1.17;;;;;;;-145.69;52.93;52345.38;5052891;28;20290;-77
2023/11/25 09:17:57;;;;;;;5.90;1.27;;;;;;;-145.69;53.14;52379.03;5052933;28;20211;-78
2023/11/25 09:20:24;;;;;;;5.80;1.47;;;;;;;-145.69;53.64;52381.00;5052604;28;20227;-79
2023/11/25 09:22:52;;;;;;;4.23;1.37;;;;;;;-145.69;53.04;52351.31;5052674;28;20203;-78
2023/11/25 09:25:19;;;;;;;5.13;1.30;;;;;;;-145.69;52.73;52357.25;5052670;28;20203;-79
2023/11/25 09:27:47;;;;;;;3.77;1.60;;;;;;;-145.69;52.32;52329.53;5052731;28;20555;-78
2023/11/25 09:30:17;;;;;;;6.17;1.70;;;;;;;-145.69;52.36;52363.19;5052756;28;20246;-78
2023/11/25 09:32:45;;;;;;;6.77;2.30;;;;;;;-145.69;52.33;52357.25;5052718;28;20204;-78
2023/11/25 09:35:14;;;;;;;5.83;1.80;;;;;;;-145.69;52.23;52353.28;5054903;28;20659;-78
2023/11/25 09:37:42;;;;;;;4.83;1.40;;;;;;;-145.69;52.50;52329.53;5072594;28;20221;-78
2023/11/25 09:40:14;;;;;;;5.63;1.40;;;;;;;-145.69;51.85;52333.47;5072575;28;20238;-77
2023/11/25 09:42:41;;;;;;;5.40;1.37;;;;;;;-145.69;52.13;52369.13;5072573;28;20206;-78
2023/11/25 09:45:09;;;;;;;6.80;1.50;;;;;;;-145.69;52.97;52303.78;5070893;28;20286;-79
2023/11/25 09:47:36;;;;;;;3.73;1.40;;;;;;;-145.69;52.02;52347.34;5072381;28;20226;-78
2023/11/25 09:50:02;;;;;;;4.33;1.43;;;;;;;-145.69;51.01;52365.16;5072315;28;20195;-78
2023/11/25 09:52:32;;;;;;;5.43;1.40;;;;;;;-145.69;51.89;52329.53;5072344;28;20195;-78
2023/11/25 09:55:01;;;;;;;3.77;1.50;;;;;;;-145.69;51.53;52325.56;5072491;28;20203;-78
2023/11/25 09:57:32;;;;;;;6.17;1.60;;;;;;;-145.69;50.33;52357.25;5072813;28;20203;-78
2023/11/25 09:59:59;;;;;;;4.27;1.50;;;;;;;-145.69;49.54;52309.72;5072282;28;20231;-79
2023/11/25 10:02:28;;;;;;;7.73;1.70;;;;;;;-145.69;50.17;52349.31;5072384;28;20199;-78
2023/11/25 10:04:56;;;;;;;5.90;1.47;;;;;;;-145.69;48.43;52309.72;5072465;28;20201;-78
2023/11/25 10:07:23;;;;;;;9.87;1.90;;;;;;;-145.69;48.74;52331.50;5072719;28;20565;-78
2023/11/25 10:09:51;;;;;;;5.90;1.50;;;;;;;-145.69;48.03;52321.59;5076214;28;20608;-78
2023/11/25 10:12:18;;;;;;;4.40;2.07;;;;;;;-145.69;48.25;52333.47;5076069;28;20207;-78
2023/11/25 10:14:46;;;;;;;5.27;1.63;;;;;;;-145.69;49.09;52345.38;5076037;28;20644;-78
2023/11/25 10:17:19;;;;;;;3.93;1.57;;;;;;;-145.69;48.97;52323.59;5075800;28;20646;-78
2023/11/25 10:19:47;;;;;;;8.97;2.00;;;;;;;-145.69;48.69;52339.44;5075931;28;20230;-78
2023/11/25 10:22:14;;;;;;;10.43;2.20;;;;;;;-145.69;48.70;52337.44;5075663;28;20202;-78
2023/11/25 10:24:47;;;;;;;4.90;1.70;;;;;;;-145.69;47.92;52337.44;5075983;28;20203;-78
2023/11/25 10:27:16;;;;;;;6.60;2.07;;;;;;;-145.69;49.10;52365.16;5075927;28;20561;-78
2023/11/25 10:29:43;;;;;;;5.63;1.67;;;;;;;-145.69;48.90;52305.75;5075623;28;20293;-78
2023/11/25 10:32:11;;;;;;;3.53;1.63;;;;;;;-145.69;49.52;52305.75;5075847;28;20229;-78
2023/11/25 10:34:37;;;;;;;10.47;1.60;;;;;;;-145.69;49.34;52343.38;5075919;28;20199;-78
2023/11/25 10:37:05;;;;;;;4.13;1.33;;;;;;;-145.69;49.35;52337.44;5075907;28;20290;-79
2023/11/25 10:39:33;;;;;;;8.80;1.93;;;;;;;-145.69;49.55;52361.22;5075444;28;20226;-79
2023/11/25 10:42:00;;;;;;;9.73;2.30;;;;;;;-145.69;49.29;52341.41;5075581;28;20203;-78
2023/11/25 10:44:28;;;;;;;11.40;2.37;;;;;;;-145.69;50.26;52339.44;5075356;28;20199;-78
2023/11/25 10:46:56;;;;;;;5.30;1.73;;;;;;;-145.69;49.78;52335.47;5075086;28;20194;-79
2023/11/25 10:49:23;;;;;;;10.27;1.90;;;;;;;-145.69;49.20;52335.47;5075253;28;20198;-79
2023/11/25 10:51:52;;;;;;;9.33;1.70;;;;;;;-145.69;49.17;52355.28;5075313;28;20294;-79
2023/11/25 10:54:26;;;;;;;7.27;1.57;;;;;;;-145.69;48.08;52337.44;5075182;28;20253;-79
2023/11/25 10:56:53;;;;;;;8.90;1.67;;;;;;;-145.69;49.25;52345.38;5075306;28;20199;-79
2023/11/25 10:59:21;;;;;;;4.90;1.50;;;;;;;-145.69;48.36;52341.41;5075044;28;20250;-78
2023/11/25 11:01:50;;;;;;;12.67;2.07;;;;;;;-145.69;48.52;52321.59;5075318;28;20217;-79
2023/11/25 11:04:23;;;;;;;11.07;1.60;;;;;;;-145.69;48.20;52327.53;5068169;28;20204;-79
2023/11/25 11:06:54;;;;;;;7.57;1.43;;;;;;;-145.69;47.85;52349.31;5069695;28;20209;-78
2023/11/25 11:09:22;;;;;;;8.57;1.90;;;;;;;-145.69;48.22;52341.41;5075148;28;20261;-79
2023/11/25 11:11:53;;;;;;;9.17;1.50;;;;;;;-145.69;48.34;52347.34;5074923;28;20191;-79
2023/11/25 11:14:22;;;;;;;14.03;2.13;;;;;;;-145.69;48.39;52280.00;5075109;28;20202;-78
2023/11/25 11:17:00;;;;;;;8.10;1.50;;;;;;;-145.69;48.31;52363.19;5075056;28;20253;-79